Terminal Aerodrome Forecast
Issued by NWS Jackson, KY

Home | Current Version | Previous Version | Text Only | Print | Product List | Glossary On
Versions: 1 2 3 4 5 6 7 8 9 10 11 12 13 14 15 16 17 18
000
FTUS43 KJKL 232300
TAFJKL
TAF
KJKL 232338Z 2400/2424 VRB03KT 5SM -TSRA BKN050CB OVC100
     FM240030 29003KT 6SM BR VCTS SCT020CB BKN030
     FM240130 VRB03KT 3SM BR VCSH BKN015 OVC020
     FM241500 34006KT P6SM SCT050=

USA.gov is the U.S. government's official web portal to all federal, state and local government web resources and services.